Time;durP1;ratioP1;P1;durP2;ratioP2;P2;SDS_P1;SDS_P2;PMS_P1;PMS_P2;Temp;Humidity;BMP_temperature;BMP_pressure;BME280_temperature;BME280_humidity;BME280_pressure;Samples;Min_cycle;Max_cycle;Signal;HPM_P1;HPM_P2
2023/03/07 00:01:54;;;;;;;20.97;13.77;;;1.60;99.90;;;;;;5073010;28;20224;-73
2023/03/07 00:04:21;;;;;;;22.60;13.67;;;1.60;99.90;;;;;;5076363;28;20200;-73
2023/03/07 00:06:47;;;;;;;19.70;13.47;;;1.60;99.90;;;;;;5076549;28;20560;-71
2023/03/07 00:09:14;;;;;;;20.70;12.93;;;1.60;99.90;;;;;;5076101;28;20232;-71
2023/03/07 00:11:42;;;;;;;20.00;13.40;;;1.60;99.90;;;;;;5076531;28;20242;-71
2023/03/07 00:14:09;;;;;;;19.10;12.93;;;1.50;99.90;;;;;;5076334;28;20262;-72
2023/03/07 00:16:35;;;;;;;23.93;14.50;;;1.60;99.90;;;;;;5076221;28;20235;-72
2023/03/07 00:19:02;;;;;;;20.30;13.47;;;1.60;99.90;;;;;;5076489;28;20208;-72
2023/03/07 00:21:30;;;;;;;19.27;12.77;;;1.50;99.90;;;;;;5076126;28;20660;-70
2023/03/07 00:23:57;;;;;;;19.97;13.57;;;1.60;99.90;;;;;;5076167;28;20289;-72
2023/03/07 00:26:25;;;;;;;22.50;14.90;;;1.50;99.90;;;;;;5076050;28;20332;-71
2023/03/07 00:28:54;;;;;;;20.43;13.17;;;1.60;99.90;;;;;;5075876;28;20217;-71
2023/03/07 00:31:21;;;;;;;18.53;12.97;;;1.50;99.90;;;;;;5075849;28;20197;-72
2023/03/07 00:33:48;;;;;;;21.13;13.43;;;1.50;99.90;;;;;;5076008;28;20255;-72
2023/03/07 00:36:17;;;;;;;22.37;13.93;;;1.50;99.90;;;;;;5076021;28;20679;-69
2023/03/07 00:38:44;;;;;;;20.67;13.90;;;1.50;99.90;;;;;;5076044;28;20731;-69
2023/03/07 00:41:13;;;;;;;20.27;12.83;;;1.50;99.90;;;;;;5075778;28;20201;-69
2023/03/07 00:43:40;;;;;;;18.67;12.70;;;1.50;99.90;;;;;;5075658;28;20197;-69
2023/03/07 00:46:08;;;;;;;23.33;12.70;;;1.50;99.90;;;;;;5075972;28;20201;-69
2023/03/07 00:48:37;;;;;;;19.97;13.07;;;1.50;99.90;;;;;;5075580;28;20225;-69
2023/03/07 00:51:06;;;;;;;20.87;13.03;;;1.50;99.90;;;;;;5075780;28;20197;-69
2023/03/07 00:53:33;;;;;;;18.87;12.03;;;1.60;99.90;;;;;;5075647;28;20259;-69
2023/03/07 00:56:01;;;;;;;20.57;12.90;;;1.50;99.90;;;;;;5075607;28;20603;-69
2023/03/07 00:58:30;;;;;;;19.67;12.60;;;1.50;99.90;;;;;;5075408;28;20247;-69
2023/03/07 01:00:58;;;;;;;19.03;12.30;;;1.50;99.90;;;;;;5075349;28;20197;-69
2023/03/07 01:03:26;;;;;;;18.17;12.57;;;1.50;99.90;;;;;;5075585;28;20262;-69
2023/03/07 01:05:53;;;;;;;18.10;12.10;;;1.50;99.90;;;;;;5075401;28;20193;-69
2023/03/07 01:08:21;;;;;;;18.70;12.00;;;1.50;99.90;;;;;;5075129;28;20228;-69
2023/03/07 01:10:48;;;;;;;16.47;11.07;;;1.50;99.90;;;;;;5075081;28;20648;-70
2023/03/07 01:13:15;;;;;;;20.13;11.80;;;1.60;99.90;;;;;;5075400;28;20208;-70
2023/03/07 01:15:42;;;;;;;18.07;11.27;;;1.60;99.90;;;;;;5075070;28;20653;-70
2023/03/07 01:18:11;;;;;;;18.17;11.60;;;1.60;99.90;;;;;;5075235;28;20246;-70
2023/03/07 01:20:39;;;;;;;17.40;11.83;;;1.70;99.90;;;;;;5075155;28;20208;-69
2023/03/07 01:23:06;;;;;;;17.00;11.20;;;1.70;99.90;;;;;;5075106;28;20232;-70
2023/03/07 01:25:37;;;;;;;16.97;11.30;;;1.70;99.90;;;;;;5074883;28;20710;-69
2023/03/07 01:28:04;;;;;;;16.67;11.20;;;1.70;99.90;;;;;;5075121;28;20233;-70
2023/03/07 01:30:31;;;;;;;18.03;10.97;;;1.70;99.90;;;;;;5075042;28;20204;-70
2023/03/07 01:32:58;;;;;;;18.93;11.47;;;1.70;99.90;;;;;;5074842;28;20512;-70
2023/03/07 01:35:25;;;;;;;17.70;11.80;;;1.70;99.90;;;;;;5074998;28;20197;-70
2023/03/07 01:37:54;;;;;;;16.37;10.77;;;1.70;99.90;;;;;;5074749;28;20258;-70
2023/03/07 01:40:23;;;;;;;18.50;11.40;;;1.70;99.90;;;;;;5074958;28;20204;-70
2023/03/07 01:42:51;;;;;;;18.97;12.00;;;1.70;99.90;;;;;;5075165;28;20251;-70
2023/03/07 01:45:56;;;;;;;21.00;12.13;;;1.70;99.90;;;;;;5074859;28;20295;-70
2023/03/07 01:48:22;;;;;;;18.90;11.87;;;1.70;99.90;;;;;;5074688;28;20224;-70
2023/03/07 01:50:49;;;;;;;17.17;11.47;;;1.60;99.90;;;;;;5074706;28;20250;-70
2023/03/07 01:53:17;;;;;;;17.73;10.87;;;1.60;99.90;;;;;;5074683;28;20193;-70
2023/03/07 01:55:44;;;;;;;17.73;11.67;;;1.60;99.90;;;;;;5074556;28;20208;-70
2023/03/07 01:58:13;;;;;;;23.20;11.17;;;1.70;99.90;;;;;;5074407;28;20200;-70
2023/03/07 02:00:41;;;;;;;17.40;11.00;;;1.60;99.90;;;;;;5074306;28;20239;-70
2023/03/07 02:03:12;;;;;;;16.67;10.47;;;1.60;99.90;;;;;;5074180;28;20779;-70
2023/03/07 02:05:41;;;;;;;18.00;11.20;;;1.60;99.90;;;;;;5074483;28;20197;-70
2023/03/07 02:08:11;;;;;;;18.33;11.87;;;1.60;99.90;;;;;;5074202;28;20221;-70
2023/03/07 02:10:41;;;;;;;18.67;11.70;;;1.60;99.90;;;;;;5074247;28;20201;-70
2023/03/07 02:13:08;;;;;;;16.37;11.50;;;1.50;99.90;;;;;;5074100;28;20197;-70
2023/03/07 02:15:35;;;;;;;16.00;10.73;;;1.60;99.90;;;;;;5074198;28;20205;-70
2023/03/07 02:18:03;;;;;;;18.57;12.53;;;1.50;99.90;;;;;;5074177;28;20271;-70
2023/03/07 02:20:36;;;;;;;17.50;11.07;;;1.60;99.90;;;;;;5073902;28;20625;-70
2023/03/07 02:23:04;;;;;;;18.70;11.57;;;1.50;99.90;;;;;;5074014;28;20251;-70
2023/03/07 02:25:34;;;;;;;18.80;11.83;;;1.50;99.90;;;;;;5073310;28;20287;-70
2023/03/07 02:28:03;;;;;;;17.13;11.73;;;1.50;99.90;;;;;;5073638;28;20204;-70
2023/03/07 02:30:30;;;;;;;18.63;12.70;;;1.50;99.90;;;;;;5073617;28;20679;-70
2023/03/07 02:32:57;;;;;;;18.77;11.93;;;1.50;99.90;;;;;;5073754;28;20193;-70
2023/03/07 02:35:25;;;;;;;16.17;11.43;;;1.50;99.90;;;;;;5073850;28;20715;-70
2023/03/07 02:37:55;;;;;;;20.90;12.60;;;1.50;99.90;;;;;;5073413;28;20534;-70
2023/03/07 02:40:24;;;;;;;18.97;12.10;;;1.50;99.90;;;;;;5073434;28;20205;-69
2023/03/07 02:42:55;;;;;;;18.97;12.07;;;1.50;99.90;;;;;;5073641;28;20259;-70
2023/03/07 02:45:23;;;;;;;17.30;11.67;;;1.50;99.90;;;;;;5073513;28;20714;-70
2023/03/07 02:47:50;;;;;;;18.87;12.40;;;1.50;99.90;;;;;;5073432;28;20197;-70
2023/03/07 02:50:17;;;;;;;19.53;12.57;;;1.40;99.90;;;;;;5073243;28;20225;-70
2023/03/07 02:52:43;;;;;;;19.53;12.77;;;1.40;99.90;;;;;;5073316;28;20223;-70
2023/03/07 02:55:11;;;;;;;21.17;12.57;;;1.30;99.90;;;;;;5073180;28;20236;-70
2023/03/07 02:57:38;;;;;;;18.80;12.63;;;1.30;99.90;;;;;;5073375;28;20305;-70
2023/03/07 03:00:06;;;;;;;20.13;12.97;;;1.30;99.90;;;;;;5073120;28;20714;-70
2023/03/07 03:02:35;;;;;;;19.93;12.40;;;1.20;99.90;;;;;;5073137;28;20687;-70
2023/03/07 03:05:01;;;;;;;21.63;12.70;;;1.20;99.90;;;;;;5073215;28;20729;-70
2023/03/07 03:07:28;;;;;;;20.97;13.80;;;1.20;99.90;;;;;;5072761;28;20294;-70
2023/03/07 03:09:55;;;;;;;24.10;13.33;;;1.10;99.90;;;;;;5072967;28;20726;-70
2023/03/07 03:12:21;;;;;;;17.97;11.17;;;1.10;99.90;;;;;;5073157;28;20232;-70
2023/03/07 03:14:48;;;;;;;20.07;12.97;;;1.00;99.90;;;;;;5073028;28;20232;-70
2023/03/07 03:17:15;;;;;;;20.63;12.13;;;1.10;99.90;;;;;;5073058;28;20229;-70
2023/03/07 03:19:43;;;;;;;20.50;12.63;;;1.10;99.90;;;;;;5072886;28;20205;-70
2023/03/07 03:22:10;;;;;;;23.63;12.90;;;1.10;99.90;;;;;;5072800;28;20248;-71
2023/03/07 03:24:39;;;;;;;22.43;13.47;;;1.10;99.90;;;;;;5073099;28;20251;-70
2023/03/07 03:27:06;;;;;;;24.70;13.47;;;1.10;99.90;;;;;;5073015;28;20270;-70
2023/03/07 03:29:32;;;;;;;22.17;13.23;;;1.00;99.90;;;;;;5072826;28;20233;-70
2023/03/07 03:31:59;;;;;;;21.30;12.33;;;1.00;99.90;;;;;;5072716;28;20607;-70
2023/03/07 03:34:26;;;;;;;23.23;13.97;;;1.00;99.90;;;;;;5072735;28;20237;-69
2023/03/07 03:36:54;;;;;;;23.13;14.57;;;1.00;99.90;;;;;;5071871;28;20228;-70
2023/03/07 03:39:20;;;;;;;19.70;13.70;;;1.00;99.90;;;;;;5072883;28;20274;-69
2023/03/07 03:41:47;;;;;;;20.90;12.90;;;1.00;99.90;;;;;;5072704;28;20272;-69
2023/03/07 03:44:13;;;;;;;21.77;12.50;;;1.00;99.90;;;;;;5072620;28;20664;-69
2023/03/07 03:46:40;;;;;;;21.17;13.00;;;1.00;99.90;;;;;;5072614;28;20231;-69
2023/03/07 03:49:06;;;;;;;22.57;13.83;;;1.00;99.90;;;;;;5072343;28;20259;-69
2023/03/07 03:51:33;;;;;;;20.20;12.83;;;1.10;99.90;;;;;;5072676;28;20239;-69
2023/03/07 03:54:01;;;;;;;17.63;12.30;;;1.10;99.90;;;;;;5072546;28;20228;-69
2023/03/07 03:56:28;;;;;;;21.87;13.60;;;1.10;99.90;;;;;;5072574;28;20236;-69
2023/03/07 03:58:57;;;;;;;18.23;11.87;;;1.10;99.90;;;;;;5072519;28;20568;-69
2023/03/07 04:01:25;;;;;;;19.20;11.87;;;1.10;99.90;;;;;;5072527;28;20633;-69
2023/03/07 04:03:53;;;;;;;17.20;11.27;;;1.20;99.90;;;;;;5072287;28;20608;-69
2023/03/07 04:06:22;;;;;;;22.30;12.90;;;1.20;99.90;;;;;;5072575;28;20224;-69
2023/03/07 04:08:49;;;;;;;22.03;12.87;;;1.20;99.90;;;;;;5072449;28;20232;-69
2023/03/07 04:11:18;;;;;;;18.43;12.10;;;1.20;99.90;;;;;;5072419;28;20196;-70
2023/03/07 04:13:44;;;;;;;21.53;13.00;;;1.20;99.90;;;;;;5072296;28;20660;-70
2023/03/07 04:16:11;;;;;;;20.07;12.80;;;1.30;99.90;;;;;;5072319;28;20243;-70
2023/03/07 04:18:38;;;;;;;19.93;12.07;;;1.30;99.90;;;;;;5072478;28;20205;-69
2023/03/07 04:21:06;;;;;;;19.40;12.63;;;1.30;99.90;;;;;;5072439;28;20197;-70
2023/03/07 04:23:33;;;;;;;19.73;12.70;;;1.40;99.90;;;;;;5072415;28;20227;-70
2023/03/07 04:26:01;;;;;;;17.70;12.37;;;1.30;99.90;;;;;;5072333;28;20201;-69
2023/03/07 04:28:41;;;;;;;18.43;11.87;;;1.30;99.90;;;;;;5072180;28;20245;-70
2023/03/07 04:31:08;;;;;;;20.77;12.07;;;1.40;99.90;;;;;;5072506;28;20205;-70
2023/03/07 04:33:34;;;;;;;19.07;11.77;;;1.30;99.90;;;;;;5072322;28;20233;-70
2023/03/07 04:36:01;;;;;;;21.00;12.37;;;1.30;99.90;;;;;;5072132;28;20672;-70
2023/03/07 04:38:27;;;;;;;19.87;12.97;;;1.30;99.90;;;;;;5072207;28;20224;-70
2023/03/07 04:40:54;;;;;;;22.23;13.30;;;1.30;99.90;;;;;;5072184;28;20236;-70
2023/03/07 04:43:21;;;;;;;20.90;13.13;;;1.20;99.90;;;;;;5072002;28;20243;-70
2023/03/07 04:45:49;;;;;;;19.33;11.63;;;1.20;99.90;;;;;;5072216;28;20197;-70
2023/03/07 04:48:16;;;;;;;18.37;12.07;;;1.20;99.90;;;;;;5073143;28;20228;-70
2023/03/07 04:50:42;;;;;;;20.10;12.33;;;1.10;99.90;;;;;;5075688;28;20228;-70
2023/03/07 04:53:09;;;;;;;19.87;12.97;;;1.20;99.90;;;;;;5075708;28;20225;-70
2023/03/07 04:55:35;;;;;;;21.40;12.77;;;1.10;99.90;;;;;;5075660;28;20224;-70
2023/03/07 04:58:02;;;;;;;20.43;12.67;;;1.10;99.90;;;;;;5075588;28;20232;-70
2023/03/07 05:00:29;;;;;;;20.97;13.30;;;1.10;99.90;;;;;;5075846;28;20228;-70
2023/03/07 05:03:00;;;;;;;20.73;13.10;;;1.10;99.90;;;;;;5075718;28;20248;-70
2023/03/07 05:05:27;;;;;;;20.73;13.03;;;1.10;99.90;;;;;;5075675;28;20197;-69
2023/03/07 05:07:54;;;;;;;21.90;12.97;;;1.10;99.90;;;;;;5075484;28;20256;-69
2023/03/07 05:10:20;;;;;;;18.23;11.60;;;1.10;99.90;;;;;;5075275;28;20270;-69
2023/03/07 05:12:47;;;;;;;23.83;13.40;;;1.10;99.90;;;;;;5075630;28;20250;-69
2023/03/07 05:15:13;;;;;;;19.00;12.33;;;1.10;99.90;;;;;;5075419;28;20233;-69
2023/03/07 05:17:40;;;;;;;19.90;12.73;;;1.10;99.90;;;;;;5075389;28;20232;-69
2023/03/07 05:20:11;;;;;;;19.90;12.33;;;1.10;99.90;;;;;;5075119;28;20694;-69
2023/03/07 05:22:38;;;;;;;21.13;13.33;;;1.10;99.90;;;;;;5075120;28;20197;-69
2023/03/07 05:25:06;;;;;;;17.63;12.17;;;1.10;99.90;;;;;;5074956;28;20672;-69
2023/03/07 05:27:32;;;;;;;19.13;12.30;;;1.10;99.90;;;;;;5075128;28;20630;-69
2023/03/07 05:29:59;;;;;;;20.40;13.40;;;1.10;99.90;;;;;;5075255;28;20266;-69
2023/03/07 05:32:26;;;;;;;20.53;12.57;;;1.10;99.90;;;;;;5075063;28;20236;-69
2023/03/07 05:34:52;;;;;;;20.40;12.47;;;1.10;99.90;;;;;;5074775;28;20197;-70
2023/03/07 05:37:20;;;;;;;18.57;12.63;;;1.10;99.90;;;;;;5075006;28;20625;-70
2023/03/07 05:39:47;;;;;;;17.70;11.57;;;1.20;99.90;;;;;;5074655;28;20236;-70
2023/03/07 05:42:14;;;;;;;20.03;13.17;;;1.20;99.90;;;;;;5074833;28;20556;-70
2023/03/07 05:44:41;;;;;;;18.37;12.57;;;1.30;99.90;;;;;;5074774;28;20193;-70
2023/03/07 05:47:07;;;;;;;19.07;12.83;;;1.20;99.90;;;;;;5074716;28;20240;-70
2023/03/07 05:49:34;;;;;;;22.17;12.23;;;1.20;99.90;;;;;;5074446;28;20259;-70
2023/03/07 05:52:01;;;;;;;18.80;12.60;;;1.20;99.90;;;;;;5074359;28;20197;-70
2023/03/07 05:54:28;;;;;;;17.43;11.80;;;1.20;99.90;;;;;;5074774;28;20237;-70
2023/03/07 05:56:55;;;;;;;20.97;12.77;;;1.30;99.90;;;;;;5074642;28;20240;-69
2023/03/07 05:59:22;;;;;;;17.50;11.73;;;1.30;99.90;;;;;;5073949;28;20664;-70
2023/03/07 06:01:48;;;;;;;19.97;11.43;;;1.30;99.90;;;;;;5074055;28;20228;-69
2023/03/07 06:04:15;;;;;;;19.97;11.77;;;1.30;99.90;;;;;;5074290;28;20225;-70
2023/03/07 06:06:41;;;;;;;19.10;12.10;;;1.30;99.90;;;;;;5074245;28;20229;-69
2023/03/07 06:09:08;;;;;;;22.63;12.13;;;1.30;99.90;;;;;;5073834;28;20693;-69
2023/03/07 06:11:36;;;;;;;17.27;11.53;;;1.40;99.90;;;;;;5074219;28;20224;-69
2023/03/07 06:14:02;;;;;;;17.20;11.77;;;1.40;99.90;;;;;;5074207;28;20197;-69
2023/03/07 06:16:29;;;;;;;19.50;12.77;;;1.40;99.90;;;;;;5074091;28;20665;-70
2023/03/07 06:18:56;;;;;;;19.87;12.00;;;1.50;99.90;;;;;;5074010;28;20242;-69
2023/03/07 06:21:22;;;;;;;17.53;11.97;;;1.50;99.90;;;;;;5073815;28;20243;-69
2023/03/07 06:23:49;;;;;;;17.53;11.23;;;1.50;99.90;;;;;;5073834;28;20585;-70
2023/03/07 06:26:16;;;;;;;19.27;11.97;;;1.60;99.90;;;;;;5074068;28;20204;-69
2023/03/07 06:28:44;;;;;;;19.23;12.00;;;1.60;99.90;;;;;;5073847;28;20615;-69
2023/03/07 06:31:12;;;;;;;23.50;14.17;;;1.60;99.90;;;;;;5073672;28;20260;-70
2023/03/07 06:33:38;;;;;;;19.47;13.13;;;1.60;99.90;;;;;;5073437;28;20228;-69
2023/03/07 06:36:06;;;;;;;19.77;13.07;;;1.70;99.90;;;;;;5073672;28;20234;-69
2023/03/07 06:38:33;;;;;;;20.33;12.07;;;1.70;99.90;;;;;;5074029;28;20205;-69
2023/03/07 06:41:00;;;;;;;19.10;11.53;;;1.80;99.90;;;;;;5073659;28;20228;-69
2023/03/07 06:43:27;;;;;;;20.57;12.07;;;1.80;99.90;;;;;;5073431;28;20239;-70
2023/03/07 06:45:55;;;;;;;20.23;12.20;;;1.80;99.90;;;;;;5073296;28;20620;-71
2023/03/07 06:48:22;;;;;;;19.70;12.33;;;1.80;99.90;;;;;;5073040;28;20236;-70
2023/03/07 06:50:48;;;;;;;20.90;11.80;;;1.90;99.90;;;;;;5073250;28;20264;-70
2023/03/07 06:53:15;;;;;;;18.47;12.10;;;1.90;99.90;;;;;;5072949;28;20228;-70
2023/03/07 06:55:41;;;;;;;20.63;11.53;;;2.00;99.90;;;;;;5073102;28;20664;-70
2023/03/07 06:58:08;;;;;;;19.27;12.33;;;2.00;99.90;;;;;;5073260;28;20668;-70
2023/03/07 07:00:35;;;;;;;18.90;11.60;;;2.10;99.90;;;;;;5073050;28;20204;-70
2023/03/07 07:03:03;;;;;;;20.87;11.70;;;2.20;99.90;;;;;;5072947;28;20232;-71
2023/03/07 07:05:30;;;;;;;18.77;12.17;;;2.30;99.90;;;;;;5073272;28;20232;-70
2023/03/07 07:07:56;;;;;;;17.43;11.87;;;2.30;99.90;;;;;;5073154;28;20256;-72
2023/03/07 07:10:23;;;;;;;15.93;10.67;;;2.30;99.90;;;;;;5073071;28;20261;-72
2023/03/07 07:12:53;;;;;;;18.57;11.67;;;2.30;99.90;;;;;;5073000;28;20568;-73
2023/03/07 07:15:20;;;;;;;18.03;11.83;;;2.30;99.90;;;;;;5072920;28;20197;-70
2023/03/07 07:17:46;;;;;;;20.23;13.30;;;2.30;99.90;;;;;;5072830;28;20551;-70
2023/03/07 07:20:14;;;;;;;17.13;10.67;;;2.40;99.90;;;;;;5073084;28;20233;-70
2023/03/07 07:22:41;;;;;;;19.67;12.23;;;2.40;99.90;;;;;;5073000;28;20193;-70
2023/03/07 07:25:08;;;;;;;17.10;11.57;;;2.40;99.90;;;;;;5078879;28;20224;-71
2023/03/07 07:27:35;;;;;;;15.93;10.83;;;2.40;99.90;;;;;;5093199;28;20235;-70
2023/03/07 07:30:02;;;;;;;16.40;11.17;;;2.50;99.90;;;;;;5092830;28;20749;-70
2023/03/07 07:32:29;;;;;;;20.30;12.53;;;2.50;99.90;;;;;;5093212;28;20233;-73
2023/03/07 07:34:55;;;;;;;16.87;10.97;;;2.60;99.90;;;;;;5093482;28;20232;-69
2023/03/07 07:37:23;;;;;;;14.93;10.37;;;2.70;99.90;;;;;;5093015;28;20229;-70
2023/03/07 07:39:50;;;;;;;17.80;11.53;;;2.60;99.90;;;;;;5092874;28;20205;-69
2023/03/07 07:42:17;;;;;;;17.00;11.03;;;2.60;99.90;;;;;;5093019;28;20331;-69
2023/03/07 07:44:45;;;;;;;21.57;12.23;;;2.60;99.90;;;;;;5092716;28;20655;-69
2023/03/07 07:47:12;;;;;;;14.47;10.20;;;2.60;99.90;;;;;;5092932;28;20237;-70
2023/03/07 07:49:39;;;;;;;16.47;11.23;;;2.60;99.90;;;;;;5092740;28;20235;-71
2023/03/07 07:52:05;;;;;;;15.90;10.40;;;2.70;99.90;;;;;;5092779;28;20229;-70
2023/03/07 07:54:33;;;;;;;16.17;10.87;;;2.80;99.90;;;;;;5092628;28;20247;-71
2023/03/07 07:57:00;;;;;;;16.07;10.20;;;2.80;99.90;;;;;;5092594;28;20237;-71
2023/03/07 07:59:26;;;;;;;19.77;10.90;;;2.70;99.90;;;;;;5092543;28;20686;-71
2023/03/07 08:01:53;;;;;;;17.17;10.37;;;2.80;99.90;;;;;;5092724;28;20228;-72
2023/03/07 08:04:20;;;;;;;17.33;11.27;;;2.80;99.90;;;;;;5092532;28;20236;-70
2023/03/07 08:06:46;;;;;;;15.87;11.00;;;2.90;99.90;;;;;;5092552;28;20556;-71
2023/03/07 08:09:14;;;;;;;15.50;10.97;;;2.90;99.90;;;;;;5092559;28;20248;-68
2023/03/07 08:11:42;;;;;;;17.67;10.87;;;2.90;99.90;;;;;;5088681;28;20701;-71
2023/03/07 08:14:09;;;;;;;21.40;10.60;;;2.90;99.90;;;;;;5091773;28;20198;-71
2023/03/07 08:16:35;;;;;;;15.53;10.70;;;2.80;99.90;;;;;;5089578;28;20193;-69
2023/03/07 08:19:02;;;;;;;17.37;10.43;;;2.90;99.90;;;;;;5071920;28;20227;-70
2023/03/07 08:21:29;;;;;;;15.77;10.77;;;3.00;99.90;;;;;;5071901;28;20689;-71
2023/03/07 08:23:56;;;;;;;19.77;11.07;;;3.00;99.90;;;;;;5078366;28;20218;-71
2023/03/07 08:26:23;;;;;;;16.10;10.67;;;3.00;99.90;;;;;;5083003;28;20230;-69
2023/03/07 08:28:51;;;;;;;14.77;10.53;;;3.10;99.90;;;;;;5075721;28;20235;-69
2023/03/07 08:31:19;;;;;;;17.17;11.23;;;3.10;99.90;;;;;;5075390;28;20262;-70
2023/03/07 08:33:46;;;;;;;15.53;9.93;;;3.10;99.90;;;;;;5075509;28;20201;-69
2023/03/07 08:36:13;;;;;;;19.80;11.07;;;3.20;99.90;;;;;;5075445;28;20588;-70
2023/03/07 08:38:40;;;;;;;14.60;9.83;;;3.20;99.90;;;;;;5075342;28;20253;-70
2023/03/07 08:41:08;;;;;;;15.07;9.70;;;3.20;99.90;;;;;;5078003;28;20324;-71
2023/03/07 08:43:38;;;;;;;19.27;10.40;;;3.20;99.90;;;;;;5075333;28;20284;-71
2023/03/07 08:46:06;;;;;;;16.30;10.57;;;3.20;99.90;;;;;;5075319;28;20227;-71
2023/03/07 08:48:33;;;;;;;15.57;10.03;;;3.30;99.90;;;;;;5074594;28;20244;-70
2023/03/07 08:51:05;;;;;;;17.67;10.90;;;3.20;99.90;;;;;;5075575;28;20740;-69
2023/03/07 08:53:31;;;;;;;16.50;10.13;;;3.20;99.90;;;;;;5075062;28;20283;-70
2023/03/07 08:55:58;;;;;;;16.13;10.47;;;3.20;99.90;;;;;;5075109;28;20249;-70
2023/03/07 08:58:25;;;;;;;14.73;10.00;;;3.10;99.90;;;;;;5084013;28;20226;-71
2023/03/07 09:00:51;;;;;;;14.33;9.47;;;3.10;99.90;;;;;;5075201;28;20228;-71
2023/03/07 09:03:19;;;;;;;13.53;9.87;;;3.20;99.90;;;;;;5074834;28;20234;-70
2023/03/07 09:05:46;;;;;;;12.60;9.53;;;3.20;99.90;;;;;;5074700;28;20711;-71
2023/03/07 09:08:12;;;;;;;16.90;10.37;;;3.30;99.90;;;;;;5074735;28;20262;-72
2023/03/07 09:10:39;;;;;;;13.63;9.10;;;3.40;99.90;;;;;;5074669;28;20259;-70
2023/03/07 09:13:05;;;;;;;14.83;10.07;;;3.50;99.90;;;;;;5073833;28;20203;-72
2023/03/07 09:15:32;;;;;;;12.93;8.67;;;3.50;99.90;;;;;;5074718;28;20251;-71
2023/03/07 09:17:59;;;;;;;15.90;9.43;;;3.50;99.90;;;;;;5074427;28;20235;-72
2023/03/07 09:20:27;;;;;;;16.53;10.23;;;3.60;99.90;;;;;;5078012;28;20196;-71
2023/03/07 09:22:53;;;;;;;14.43;9.70;;;3.80;99.90;;;;;;5074508;28;20240;-72
2023/03/07 09:25:20;;;;;;;17.90;10.53;;;3.80;99.90;;;;;;5074339;28;20273;-72
2023/03/07 09:27:46;;;;;;;15.80;10.13;;;4.00;99.90;;;;;;5074611;28;20197;-71
2023/03/07 09:30:14;;;;;;;13.43;9.77;;;4.20;99.90;;;;;;5074333;28;20662;-71
2023/03/07 09:32:40;;;;;;;14.90;8.90;;;4.20;99.90;;;;;;5074369;28;20225;-71
2023/03/07 09:35:09;;;;;;;17.93;9.50;;;4.20;99.90;;;;;;5072715;28;20301;-71
2023/03/07 09:37:37;;;;;;;12.43;8.57;;;4.30;99.90;;;;;;5074073;28;20216;-71
2023/03/07 09:40:06;;;;;;;12.73;8.33;;;4.40;99.90;;;;;;5094183;28;20231;-72
2023/03/07 09:42:40;;;;;;;14.67;9.20;;;4.40;99.90;;;;;;5094781;28;20614;-72
2023/03/07 09:45:20;;;;;;;14.20;9.40;;;4.70;99.90;;;;;;5094425;28;20655;-70
2023/03/07 09:48:13;;;;;;;16.30;9.50;;;5.10;99.90;;;;;;5094240;28;20663;-71
2023/03/07 09:50:47;;;;;;;16.47;9.10;;;5.30;99.90;;;;;;5094438;28;20322;-70
2023/03/07 09:53:22;;;;;;;13.90;8.60;;;5.10;99.90;;;;;;5094600;28;20277;-70
2023/03/07 09:55:51;;;;;;;12.50;9.50;;;5.20;99.90;;;;;;5094379;28;20654;-71
2023/03/07 09:58:22;;;;;;;13.47;9.30;;;5.60;99.90;;;;;;5094425;28;20653;-71
2023/03/07 10:00:54;;;;;;;11.60;8.40;;;5.60;99.90;;;;;;5094495;28;20235;-71
2023/03/07 10:03:29;;;;;;;11.60;8.30;;;5.60;99.90;;;;;;5094574;28;20742;-70
2023/03/07 10:05:59;;;;;;;14.60;9.30;;;5.60;99.90;;;;;;5094292;28;20234;-70
2023/03/07 10:08:31;;;;;;;11.03;8.03;;;6.10;99.90;;;;;;5091777;28;20244;-70
2023/03/07 10:11:06;;;;;;;10.53;7.63;;;6.30;99.90;;;;;;5094044;28;20223;-73
2023/03/07 10:13:44;;;;;;;11.87;7.93;;;6.00;99.90;;;;;;5094496;28;20667;-70
2023/03/07 10:16:18;;;;;;;12.27;8.30;;;6.10;99.90;;;;;;5092095;28;20694;-69
2023/03/07 10:18:59;;;;;;;9.63;7.50;;;6.10;99.90;;;;;;5093819;28;20220;-70
2023/03/07 10:21:36;;;;;;;9.50;7.00;;;6.00;99.90;;;;;;5094154;28;20264;-69
2023/03/07 10:24:21;;;;;;;13.80;7.70;;;6.10;99.90;;;;;;5093816;28;20651;-69
2023/03/07 10:26:53;;;;;;;11.37;7.57;;;6.60;99.90;;;;;;5093689;28;20721;-69
2023/03/07 10:29:26;;;;;;;14.87;7.83;;;6.10;99.90;;;;;;5093713;28;20235;-69
2023/03/07 10:31:56;;;;;;;11.90;7.83;;;6.30;99.90;;;;;;5093845;28;20259;-69
2023/03/07 10:34:26;;;;;;;13.63;8.10;;;6.40;99.90;;;;;;5094216;28;20192;-69
2023/03/07 10:36:56;;;;;;;11.57;7.53;;;6.00;99.90;;;;;;5093713;28;20228;-69
2023/03/07 10:39:33;;;;;;;20.93;10.70;;;6.10;99.90;;;;;;5093787;28;20224;-69
2023/03/07 10:41:59;;;;;;;11.87;6.97;;;6.10;99.90;;;;;;5093969;28;20641;-69
2023/03/07 10:44:28;;;;;;;9.30;7.20;;;5.90;99.90;;;;;;5093776;28;20290;-68
2023/03/07 10:46:58;;;;;;;10.50;7.23;;;5.80;99.90;;;;;;5093208;28;20224;-68
2023/03/07 10:49:28;;;;;;;9.37;6.50;;;5.70;99.90;;;;;;5093364;28;20674;-68
2023/03/07 10:52:00;;;;;;;11.57;7.17;;;5.70;99.90;;;;;;5093395;28;20251;-68
2023/03/07 10:54:31;;;;;;;9.33;7.23;;;5.90;99.90;;;;;;5093612;28;20246;-70
2023/03/07 10:57:07;;;;;;;10.27;6.43;;;6.20;99.90;;;;;;5093003;28;20717;-69
2023/03/07 10:59:34;;;;;;;10.00;7.03;;;5.80;99.90;;;;;;5093277;28;20218;-69
2023/03/07 11:02:04;;;;;;;10.37;7.20;;;5.60;99.90;;;;;;5093060;28;20224;-70
2023/03/07 11:04:43;;;;;;;11.37;6.87;;;5.90;99.90;;;;;;5092991;28;20196;-71
2023/03/07 11:07:27;;;;;;;9.80;6.50;;;6.20;99.90;;;;;;5093117;28;20224;-70
2023/03/07 11:09:55;;;;;;;11.93;7.53;;;6.20;99.90;;;;;;5093235;28;20196;-71
2023/03/07 11:12:23;;;;;;;10.90;6.97;;;6.10;99.90;;;;;;5092925;28;20224;-71
2023/03/07 11:14:52;;;;;;;9.50;6.77;;;5.90;99.90;;;;;;5092732;28;20228;-71
2023/03/07 11:17:20;;;;;;;13.67;7.47;;;5.80;99.90;;;;;;5092790;28;20247;-71
2023/03/07 11:19:47;;;;;;;8.87;6.80;;;5.90;99.90;;;;;;5092932;28;20196;-71
2023/03/07 11:22:20;;;;;;;10.63;7.00;;;5.70;99.90;;;;;;5092550;28;20692;-70
2023/03/07 11:24:59;;;;;;;14.60;7.13;;;5.60;99.90;;;;;;5091515;28;20232;-70
2023/03/07 11:27:38;;;;;;;9.87;7.53;;;5.20;99.90;;;;;;5092363;28;20227;-71
2023/03/07 11:30:23;;;;;;;10.87;7.10;;;5.30;99.90;;;;;;5092516;28;20651;-71
2023/03/07 11:32:57;;;;;;;10.37;6.80;;;5.20;99.90;;;;;;5092466;28;20232;-70
2023/03/07 11:35:34;;;;;;;10.80;7.00;;;5.10;99.90;;;;;;5092389;28;20192;-69
2023/03/07 11:38:07;;;;;;;10.87;6.90;;;5.00;99.90;;;;;;5092440;28;20223;-70
2023/03/07 11:40:42;;;;;;;9.77;7.10;;;4.90;99.90;;;;;;5092782;28;20265;-70
2023/03/07 11:43:18;;;;;;;9.80;7.10;;;4.80;99.90;;;;;;5092757;28;20599;-69
2023/03/07 11:45:52;;;;;;;9.40;6.87;;;4.80;99.90;;;;;;5092758;28;20224;-70
2023/03/07 11:48:31;;;;;;;10.97;7.57;;;4.80;99.90;;;;;;5092165;28;20231;-71
2023/03/07 11:50:58;;;;;;;11.30;7.47;;;4.70;99.90;;;;;;5092652;28;20261;-70
2023/03/07 11:53:41;;;;;;;10.23;6.33;;;4.60;99.90;;;;;;5092827;28;20203;-70
2023/03/07 11:56:25;;;;;;;11.07;6.97;;;4.60;99.90;;;;;;5092773;28;20666;-71
2023/03/07 11:59:18;;;;;;;7.70;5.23;;;4.60;99.90;;;;;;5094431;28;20716;-70
2023/03/07 12:01:53;;;;;;;9.90;6.60;;;4.50;99.90;;;;;;5096610;28;20238;-70
2023/03/07 12:04:54;;;;;;;8.57;6.40;;;4.50;99.90;;;;;;5096816;28;20355;-71
2023/03/07 12:07:43;;;;;;;8.10;6.57;;;4.30;99.90;;;;;;5080446;28;20667;-71
2023/03/07 12:10:26;;;;;;;10.20;6.23;;;4.30;99.90;;;;;;5096749;28;20223;-70
2023/03/07 12:13:06;;;;;;;14.40;7.23;;;4.30;99.90;;;;;;5096480;28;20255;-75
2023/03/07 12:15:39;;;;;;;8.80;6.23;;;4.30;99.90;;;;;;5096252;28;20658;-71
2023/03/07 12:18:29;;;;;;;9.07;6.30;;;4.30;99.90;;;;;;5096629;28;20293;-72
2023/03/07 12:21:06;;;;;;;8.33;6.13;;;4.30;99.90;;;;;;5096186;28;20238;-72
2023/03/07 12:23:38;;;;;;;8.37;6.03;;;4.40;99.90;;;;;;5096044;28;20249;-70
2023/03/07 12:26:10;;;;;;;10.00;6.83;;;4.50;99.90;;;;;;5096287;28;20269;-70
2023/03/07 12:28:45;;;;;;;11.47;7.00;;;4.50;99.90;;;;;;5095028;28;20619;-68
2023/03/07 12:31:17;;;;;;;10.03;6.80;;;4.70;99.90;;;;;;5094543;28;20192;-68
2023/03/07 12:33:52;;;;;;;9.57;7.03;;;4.90;99.90;;;;;;5094545;28;20230;-70
2023/03/07 12:36:27;;;;;;;8.30;6.47;;;4.90;99.90;;;;;;5095588;28;20235;-69
2023/03/07 12:38:59;;;;;;;10.17;6.57;;;4.90;99.90;;;;;;5095213;28;20219;-70
2023/03/07 12:41:44;;;;;;;10.80;7.27;;;4.80;99.90;;;;;;5096182;28;20232;-70
2023/03/07 12:44:21;;;;;;;8.77;6.97;;;5.00;99.90;;;;;;5096095;28;20238;-70
2023/03/07 12:46:53;;;;;;;9.43;5.60;;;5.00;99.90;;;;;;5095906;28;20234;-70
2023/03/07 12:49:30;;;;;;;8.73;5.17;;;5.00;99.90;;;;;;5096068;28;20228;-70
2023/03/07 12:52:00;;;;;;;8.43;5.60;;;4.90;99.40;;;;;;5096032;28;20223;-69